Blackfords, United Kingdom
Current Conditions -  °F | °C
As of 4:20 PM on Monday 22 Dec 2014 (Local Time) from EGBB Reporting Station
Few Clouds Few Clouds  
Wind Chill: 54°   Ceiling: Unl
Heat Index: 54°   Visibility: 6mi
Dew Point: 45°   Wind: 14mph
Humidity: 72%   Direction: 240°WSW
Pressure: 29.91"   Gusts: 28mph
Location:  52.69°N, 2.03°W
Report Text: EGBB 221620Z 24012G24KT 200V330 9999 FEW041 12/07 Q1013
Loading
Personal Weather Stations






























Interactive Weather Map New forecast layout! Learn more

10-Day Weather Forecast

Advertisements
Track Severe Weather on mobile